createdAt,value
2022-11-07T00:02:19.196Z,3.57
2022-11-07T00:05:06.953Z,3.67
2022-11-07T00:07:53.946Z,3.47
2022-11-07T00:10:40.900Z,3.17
2022-11-07T00:13:29.427Z,3.97
2022-11-07T00:16:16.855Z,3.20
2022-11-07T00:19:03.866Z,3.43
2022-11-07T00:21:50.930Z,3.77
2022-11-07T00:24:37.863Z,3.80
2022-11-07T00:27:24.924Z,3.80
2022-11-07T00:30:12.468Z,4.33
2022-11-07T00:33:00.465Z,4.20
2022-11-07T00:35:47.773Z,3.57
2022-11-07T00:38:34.981Z,3.20
2022-11-07T00:41:22.871Z,3.20
2022-11-07T00:44:09.881Z,2.67
2022-11-07T00:46:56.876Z,2.50
2022-11-07T00:49:43.926Z,2.83
2022-11-07T00:52:30.916Z,2.23
2022-11-07T00:55:17.892Z,2.40
2022-11-07T00:58:07.531Z,3.23
2022-11-07T01:00:56.728Z,2.40
2022-11-07T01:04:02.799Z,2.23
2022-11-07T01:06:49.849Z,2.30
2022-11-07T01:09:36.805Z,2.27
2022-11-07T01:12:23.764Z,2.33
2022-11-07T01:15:11.066Z,2.50
2022-11-07T01:17:58.047Z,1.87
2022-11-07T01:20:45.093Z,2.23
2022-11-07T01:23:32.094Z,1.80
2022-11-07T01:26:19.383Z,1.60
2022-11-07T01:29:07.231Z,2.00
2022-11-07T01:31:54.230Z,2.60
2022-11-07T01:34:41.209Z,1.63
2022-11-07T01:37:28.198Z,1.93
2022-11-07T01:40:15.212Z,1.73
2022-11-07T01:43:02.241Z,1.77
2022-11-07T01:45:49.196Z,1.77
2022-11-07T01:48:36.414Z,1.63
2022-11-07T01:51:24.490Z,1.70
2022-11-07T01:54:13.378Z,1.67
2022-11-07T01:57:05.413Z,1.73
2022-11-07T01:59:56.781Z,1.77
2022-11-07T02:02:47.042Z,1.67
2022-11-07T02:05:48.381Z,1.80
2022-11-07T02:08:37.936Z,1.80
2022-11-07T02:11:25.516Z,1.50
2022-11-07T02:14:15.814Z,1.70
2022-11-07T02:17:03.397Z,1.57
2022-11-07T02:19:52.874Z,1.53
2022-11-07T02:23:03.683Z,1.60
2022-11-07T02:25:50.717Z,1.50
2022-11-07T02:28:40.097Z,1.57
2022-11-07T02:31:27.057Z,1.33
2022-11-07T02:34:14.030Z,1.70
2022-11-07T02:37:05.263Z,1.33
2022-11-07T02:39:52.277Z,1.37
2022-11-07T02:42:45.561Z,1.43
2022-11-07T02:45:39.266Z,1.40
2022-11-07T02:48:41.141Z,1.47
2022-11-07T02:51:28.528Z,1.30
2022-11-07T02:54:15.476Z,1.40
2022-11-07T02:57:02.683Z,1.20
2022-11-07T02:59:49.652Z,1.27
2022-11-07T03:02:36.792Z,1.30
2022-11-07T03:05:23.817Z,1.30
2022-11-07T03:08:10.756Z,1.30
2022-11-07T03:10:57.814Z,1.87
2022-11-07T03:13:45.545Z,1.57
2022-11-07T03:16:32.498Z,1.80
2022-11-07T03:19:19.502Z,1.50
2022-11-07T03:22:06.805Z,1.47
2022-11-07T03:24:53.803Z,1.57
2022-11-07T03:27:50.836Z,1.10
2022-11-07T03:30:37.819Z,1.47
2022-11-07T03:33:24.829Z,1.20
2022-11-07T03:36:11.798Z,1.33
2022-11-07T03:38:58.753Z,1.40
2022-11-07T03:41:45.718Z,1.10
2022-11-07T03:44:32.697Z,1.37
2022-11-07T03:47:19.750Z,1.43
2022-11-07T03:50:09.352Z,1.23
2022-11-07T03:52:56.383Z,1.23
2022-11-07T03:55:46.145Z,1.43
2022-11-07T03:58:33.102Z,1.30
2022-11-07T04:01:20.113Z,1.10
2022-11-07T04:04:07.120Z,0.90
2022-11-07T04:06:54.095Z,1.70
2022-11-07T04:09:41.072Z,1.30
2022-11-07T04:12:46.736Z,1.30
2022-11-07T04:15:52.337Z,1.60
2022-11-07T04:18:39.308Z,1.40
2022-11-07T04:21:26.283Z,1.20
2022-11-07T04:24:13.233Z,1.23
2022-11-07T04:27:18.709Z,1.33
2022-11-07T04:30:23.709Z,1.23
2022-11-07T04:33:10.723Z,1.30
2022-11-07T04:35:57.688Z,0.97
2022-11-07T04:38:45.165Z,1.13
2022-11-07T04:41:32.125Z,1.47
2022-11-07T04:44:19.080Z,1.43
2022-11-07T04:47:06.062Z,1.23
2022-11-07T04:49:53.066Z,1.10
2022-11-07T04:52:40.337Z,1.00
2022-11-07T04:55:30.606Z,1.10
2022-11-07T04:58:17.646Z,1.40
2022-11-07T05:01:04.764Z,1.07
2022-11-07T05:03:51.721Z,1.10
2022-11-07T05:06:39.410Z,1.33
2022-11-07T05:09:27.344Z,1.20
2022-11-07T05:12:14.323Z,1.43
2022-11-07T05:15:01.365Z,1.20
2022-11-07T05:17:48.761Z,1.37
2022-11-07T05:20:38.210Z,3.13
2022-11-07T05:23:27.776Z,1.20
2022-11-07T05:26:14.752Z,1.20
2022-11-07T05:29:01.748Z,1.20
2022-11-07T05:31:48.689Z,0.83
2022-11-07T05:34:35.671Z,1.00
2022-11-07T05:37:22.703Z,1.03
2022-11-07T05:40:10.369Z,1.10
2022-11-07T05:43:01.861Z,1.30
2022-11-07T05:45:48.852Z,1.17
2022-11-07T05:48:36.379Z,0.90
2022-11-07T05:51:23.363Z,1.10
2022-11-07T05:54:10.480Z,1.03
2022-11-07T05:56:58.091Z,1.00
2022-11-07T05:59:45.101Z,0.90
2022-11-07T06:02:32.297Z,0.90
2022-11-07T06:05:23.898Z,1.10
2022-11-07T06:08:13.458Z,1.17
2022-11-07T06:11:04.456Z,1.10
2022-11-07T06:13:53.003Z,0.80
2022-11-07T06:16:39.965Z,0.90
2022-11-07T06:19:26.927Z,0.90
2022-11-07T06:22:13.891Z,0.80
2022-11-07T06:25:00.923Z,1.10
2022-11-07T06:27:47.914Z,1.17
2022-11-07T06:30:35.832Z,1.00
2022-11-07T06:33:22.797Z,1.40
2022-11-07T06:36:12.999Z,1.20
2022-11-07T06:38:59.959Z,1.47
2022-11-07T06:41:48.987Z,1.27
2022-11-07T06:44:35.934Z,1.20
2022-11-07T06:47:22.872Z,1.60
2022-11-07T06:50:09.909Z,1.67
2022-11-07T06:53:04.831Z,1.30
2022-11-07T06:55:51.808Z,1.90
2022-11-07T06:58:38.846Z,2.03
2022-11-07T07:01:26.744Z,1.87
2022-11-07T07:04:13.868Z,1.30
2022-11-07T07:07:00.842Z,1.60
2022-11-07T07:09:47.809Z,1.30
2022-11-07T07:12:34.875Z,3.23
2022-11-07T07:15:22.168Z,2.70
2022-11-07T07:18:09.322Z,5.07
2022-11-07T07:21:07.871Z,4.47
2022-11-07T07:23:54.820Z,3.43
2022-11-07T07:26:41.851Z,1.90
2022-11-07T07:29:28.827Z,1.87
2022-11-07T07:32:15.854Z,2.17
2022-11-07T07:35:03.340Z,1.60
2022-11-07T07:37:52.009Z,1.30
2022-11-07T07:40:39.035Z,2.47
2022-11-07T07:43:27.402Z,1.90
2022-11-07T07:46:18.032Z,1.87
2022-11-07T07:49:05.010Z,2.07
2022-11-07T07:51:52.025Z,1.70
2022-11-07T07:54:38.974Z,1.40
2022-11-07T07:57:25.968Z,1.53
2022-11-07T08:00:13.396Z,1.60
2022-11-07T08:03:01.519Z,1.40
2022-11-07T08:05:56.463Z,1.40
2022-11-07T08:08:43.460Z,1.57
2022-11-07T08:11:30.784Z,2.17
2022-11-07T08:14:17.848Z,1.47
2022-11-07T08:17:04.924Z,1.40
2022-11-07T08:19:52.024Z,5.30
2022-11-07T08:22:39.533Z,4.97
2022-11-07T08:25:26.683Z,4.23
2022-11-07T08:28:13.992Z,3.50
2022-11-07T08:31:09.403Z,2.40
2022-11-07T08:34:00.583Z,1.87
2022-11-07T08:36:47.742Z,1.77
2022-11-07T08:39:34.936Z,1.47
2022-11-07T08:42:22.341Z,1.63
2022-11-07T08:45:10.099Z,1.50
2022-11-07T08:48:00.529Z,1.63
2022-11-07T08:50:52.758Z,1.50
2022-11-07T08:53:39.822Z,1.70
2022-11-07T08:56:27.106Z,1.80
2022-11-07T08:59:15.204Z,1.70
2022-11-07T09:02:47.512Z,2.17
2022-11-07T09:05:10.270Z,1.70
2022-11-07T09:07:57.706Z,3.40
2022-11-07T09:10:45.078Z,1.10
2022-11-07T09:13:33.940Z,1.63
2022-11-07T09:16:22.361Z,1.50
2022-11-07T09:19:09.418Z,1.30
2022-11-07T09:21:57.513Z,2.27
2022-11-07T09:24:44.846Z,1.60
2022-11-07T09:27:32.174Z,1.50
2022-11-07T09:30:20.451Z,1.33
2022-11-07T09:33:07.954Z,1.40
2022-11-07T09:35:59.334Z,1.40
2022-11-07T09:38:46.329Z,1.27
2022-11-07T09:42:04.297Z,1.60
2022-11-07T09:44:59.997Z,1.70
2022-11-07T09:47:59.509Z,1.70
2022-11-07T09:50:49.415Z,1.40
2022-11-07T09:53:44.488Z,1.60
2022-11-07T09:56:32.900Z,1.00
2022-11-07T09:59:31.837Z,1.40
2022-11-07T10:02:24.010Z,1.37
2022-11-07T10:05:15.606Z,1.60
2022-11-07T10:08:07.851Z,3.03
2022-11-07T10:11:13.479Z,5.63
2022-11-07T10:14:12.709Z,3.50
2022-11-07T10:17:08.688Z,1.40
2022-11-07T10:20:21.892Z,1.30
2022-11-07T10:23:43.972Z,1.27
2022-11-07T10:26:31.964Z,1.13
2022-11-07T10:29:21.543Z,1.60
2022-11-07T10:32:28.133Z,1.10
2022-11-07T10:35:28.864Z,1.40
2022-11-07T10:38:21.865Z,0.93
2022-11-07T10:41:21.393Z,2.30
2022-11-07T10:47:20.939Z,1.20
2022-11-07T10:50:23.547Z,1.33
2022-11-07T10:53:19.553Z,1.07
2022-11-07T10:56:11.113Z,1.47
2022-11-07T10:58:58.542Z,1.10
2022-11-07T11:01:52.239Z,1.33
2022-11-07T11:05:09.904Z,0.90
2022-11-07T11:08:07.733Z,1.10
2022-11-07T11:10:54.769Z,1.10
2022-11-07T11:13:41.767Z,0.80
2022-11-07T11:16:31.127Z,1.30
2022-11-07T11:19:29.942Z,1.10
2022-11-07T11:22:19.622Z,1.00
2022-11-07T11:25:15.786Z,2.63
2022-11-07T11:28:06.983Z,1.13
2022-11-07T11:31:06.572Z,1.60
2022-11-07T11:34:32.278Z,2.43
2022-11-07T11:37:22.016Z,1.60
2022-11-07T11:40:16.920Z,1.50
2022-11-07T11:43:19.211Z,1.17
2022-11-07T11:46:32.145Z,2.13
2022-11-07T11:49:28.400Z,1.00
2022-11-07T11:52:21.925Z,1.10
2022-11-07T11:55:17.535Z,1.10
2022-11-07T11:58:23.425Z,3.07
2022-11-07T12:01:35.629Z,1.67
2022-11-07T12:04:42.121Z,4.40
2022-11-07T12:07:45.892Z,2.27
2022-11-07T12:10:46.874Z,1.57
2022-11-07T12:14:01.235Z,0.60
2022-11-07T12:16:59.122Z,1.33
2022-11-07T12:20:30.707Z,2.73
2022-11-07T12:23:46.031Z,0.63
2022-11-07T12:26:46.245Z,0.90
2022-11-07T12:29:54.657Z,0.87
2022-11-07T12:33:09.723Z,2.87
2022-11-07T12:36:11.665Z,2.07
2022-11-07T12:39:07.553Z,0.87
2022-11-07T12:42:02.755Z,1.47
2022-11-07T12:45:14.583Z,1.53
2022-11-07T12:48:47.097Z,2.67
2022-11-07T12:51:58.781Z,1.30
2022-11-07T12:55:28.969Z,1.50
2022-11-07T12:58:23.969Z,0.70
2022-11-07T13:01:18.667Z,0.70
2022-11-07T13:04:32.555Z,0.80
2022-11-07T13:07:47.340Z,1.37
2022-11-07T13:10:48.812Z,2.00
2022-11-07T13:14:02.232Z,2.37
2022-11-07T13:16:53.064Z,1.50
2022-11-07T13:19:43.725Z,1.30
2022-11-07T13:22:41.193Z,0.83
2022-11-07T13:25:33.171Z,1.93
2022-11-07T13:28:27.372Z,1.00
2022-11-07T13:31:33.357Z,1.80
2022-11-07T13:34:20.419Z,1.20
2022-11-07T13:37:15.998Z,0.83
2022-11-07T13:40:21.141Z,1.33
2022-11-07T13:43:29.384Z,1.17
2022-11-07T13:46:25.938Z,1.10
2022-11-07T13:49:18.580Z,1.53
2022-11-07T13:52:14.336Z,2.80
2022-11-07T13:55:09.127Z,5.00
2022-11-07T13:58:03.402Z,4.23
2022-11-07T14:00:50.543Z,3.90
2022-11-07T14:03:37.917Z,2.90
2022-11-07T14:06:26.720Z,2.90
2022-11-07T14:09:16.938Z,2.10
2022-11-07T14:12:04.621Z,1.70
2022-11-07T14:14:55.299Z,1.73
2022-11-07T14:17:44.878Z,1.90
2022-11-07T14:20:32.188Z,1.70
2022-11-07T14:23:25.930Z,1.50
2022-11-07T14:26:33.436Z,1.53
2022-11-07T14:29:22.019Z,1.57
2022-11-07T14:32:18.178Z,1.10
2022-11-07T14:35:08.217Z,0.80
2022-11-07T14:37:57.434Z,1.70
2022-11-07T14:40:44.824Z,1.23
2022-11-07T14:43:32.070Z,2.00
2022-11-07T14:46:23.280Z,3.47
2022-11-07T14:49:43.726Z,7.37
2022-11-07T14:52:53.949Z,8.50
2022-11-07T14:55:48.681Z,7.07
2022-11-07T14:58:36.145Z,5.70
2022-11-07T15:01:29.583Z,3.93
2022-11-07T15:04:25.223Z,6.00
2022-11-07T15:07:32.486Z,3.47
2022-11-07T15:10:30.525Z,2.00
2022-11-07T15:13:24.379Z,1.40
2022-11-07T15:16:17.340Z,1.33
2022-11-07T15:19:08.786Z,2.50
2022-11-07T15:22:01.337Z,1.10
2022-11-07T15:24:48.436Z,1.47
2022-11-07T15:27:40.155Z,1.00
2022-11-07T15:30:33.922Z,1.17
2022-11-07T15:33:21.379Z,0.87
2022-11-07T15:36:09.275Z,1.00
2022-11-07T15:38:56.338Z,0.80
2022-11-07T15:41:43.318Z,1.53
2022-11-07T15:44:30.317Z,0.90
2022-11-07T15:47:22.067Z,1.10
2022-11-07T15:50:24.934Z,0.70
2022-11-07T15:53:27.231Z,0.80
2022-11-07T15:56:16.592Z,0.93
2022-11-07T15:59:03.569Z,0.77
2022-11-07T16:01:50.655Z,0.93
2022-11-07T16:04:39.720Z,0.73
2022-11-07T16:07:27.015Z,1.00
2022-11-07T16:10:20.295Z,0.80
2022-11-07T16:13:09.256Z,0.87
2022-11-07T16:16:03.425Z,0.97
2022-11-07T16:18:52.512Z,1.10
2022-11-07T16:21:39.533Z,1.70
2022-11-07T16:24:26.510Z,1.83
2022-11-07T16:27:16.977Z,1.13
2022-11-07T16:30:10.500Z,1.00
2022-11-07T16:32:58.106Z,2.73
2022-11-07T16:35:48.248Z,2.10
2022-11-07T16:38:36.513Z,2.03
2022-11-07T16:41:23.558Z,1.50
2022-11-07T16:44:10.647Z,1.10
2022-11-07T16:46:58.263Z,1.20
2022-11-07T16:49:45.850Z,1.27
2022-11-07T16:52:32.969Z,1.47
2022-11-07T16:55:20.139Z,2.17
2022-11-07T16:58:25.924Z,1.17
2022-11-07T17:01:13.162Z,1.10
2022-11-07T17:04:00.485Z,1.20
2022-11-07T17:06:47.743Z,1.30
2022-11-07T17:09:35.072Z,1.33
2022-11-07T17:12:22.993Z,1.90
2022-11-07T17:15:10.555Z,1.90
2022-11-07T17:18:00.609Z,2.33
2022-11-07T17:20:52.001Z,1.37
2022-11-07T17:23:39.626Z,1.03
2022-11-07T17:26:35.689Z,1.53
2022-11-07T17:29:23.115Z,1.20
2022-11-07T17:32:11.183Z,1.20
2022-11-07T17:35:25.709Z,1.27
2022-11-07T17:38:05.884Z,1.50
2022-11-07T17:40:52.878Z,1.60
2022-11-07T17:43:39.868Z,1.43
2022-11-07T17:46:30.833Z,1.90
2022-11-07T17:49:19.372Z,1.40
2022-11-07T17:52:06.488Z,1.37
2022-11-07T17:54:54.785Z,4.20
2022-11-07T17:57:43.354Z,1.63
2022-11-07T18:00:30.386Z,3.43
2022-11-07T18:03:17.463Z,1.43
2022-11-07T18:06:04.619Z,1.60
2022-11-07T18:08:53.403Z,1.50
2022-11-07T18:11:40.457Z,1.10
2022-11-07T18:14:27.564Z,1.00
2022-11-07T18:17:14.543Z,1.13
2022-11-07T18:20:03.953Z,3.87
2022-11-07T18:22:50.994Z,0.70
2022-11-07T18:25:38.156Z,1.10
2022-11-07T18:28:25.116Z,1.30
2022-11-07T18:31:14.130Z,1.20
2022-11-07T18:34:04.493Z,1.13
2022-11-07T18:36:51.463Z,1.40
2022-11-07T18:39:38.906Z,1.77
2022-11-07T18:42:25.867Z,4.37
2022-11-07T18:45:13.925Z,1.97
2022-11-07T18:48:00.891Z,1.70
2022-11-07T18:50:48.349Z,1.40
2022-11-07T18:53:35.705Z,2.40
2022-11-07T18:56:22.673Z,2.40
2022-11-07T18:59:10.654Z,1.90
2022-11-07T19:01:57.637Z,1.90
2022-11-07T19:04:44.739Z,2.53
2022-11-07T19:07:31.776Z,1.73
2022-11-07T19:10:20.038Z,1.70
2022-11-07T19:13:08.489Z,1.73
2022-11-07T19:15:55.805Z,1.43
2022-11-07T19:18:49.223Z,1.40
2022-11-07T19:21:39.160Z,1.70
2022-11-07T19:24:28.436Z,2.50
2022-11-07T19:27:15.821Z,1.93
2022-11-07T19:30:06.075Z,2.30
2022-11-07T19:32:54.285Z,2.37
2022-11-07T19:35:41.916Z,2.13
2022-11-07T19:38:30.382Z,1.73
2022-11-07T19:41:18.446Z,3.13
2022-11-07T19:44:06.054Z,2.27
2022-11-07T19:46:53.581Z,1.83
2022-11-07T19:49:40.557Z,2.03
2022-11-07T19:52:27.548Z,2.50
2022-11-07T19:55:14.986Z,2.30
2022-11-07T19:58:02.198Z,2.07
2022-11-07T20:00:49.320Z,2.33
2022-11-07T20:03:36.392Z,2.53
2022-11-07T20:06:26.920Z,1.80
2022-11-07T20:09:14.050Z,2.20
2022-11-07T20:12:01.240Z,3.63
2022-11-07T20:14:48.582Z,2.73
2022-11-07T20:17:35.885Z,1.80
2022-11-07T20:20:23.384Z,1.60
2022-11-07T20:23:10.624Z,2.23
2022-11-07T20:25:57.929Z,1.37
2022-11-07T20:28:49.249Z,2.00
2022-11-07T20:31:37.136Z,2.03
2022-11-07T20:34:24.101Z,1.20
2022-11-07T20:37:11.093Z,1.53
2022-11-07T20:39:58.192Z,1.63
2022-11-07T20:42:45.152Z,1.70
2022-11-07T20:45:32.158Z,2.20
2022-11-07T20:48:20.067Z,1.80
2022-11-07T20:51:12.938Z,2.50
2022-11-07T20:54:00.081Z,3.07
2022-11-07T20:56:47.486Z,1.53
2022-11-07T20:59:35.244Z,1.43
2022-11-07T21:02:23.634Z,1.50
2022-11-07T21:05:17.637Z,1.33
2022-11-07T21:08:05.396Z,1.63
2022-11-07T21:10:53.431Z,1.50
2022-11-07T21:13:41.386Z,1.43
2022-11-07T21:16:29.165Z,1.57
2022-11-07T21:19:16.363Z,1.67
2022-11-07T21:22:04.246Z,2.00
2022-11-07T21:24:51.568Z,1.37
2022-11-07T21:27:38.552Z,1.70
2022-11-07T21:30:25.973Z,1.50
2022-11-07T21:33:13.091Z,2.23
2022-11-07T21:36:00.441Z,2.27
2022-11-07T21:38:47.759Z,1.63
2022-11-07T21:41:35.100Z,2.13
2022-11-07T21:44:22.170Z,2.00
2022-11-07T21:47:09.152Z,1.90
2022-11-07T21:49:56.189Z,2.00
2022-11-07T21:52:46.260Z,2.77
2022-11-07T21:55:33.526Z,2.20
2022-11-07T21:58:20.478Z,2.27
2022-11-07T22:01:07.874Z,2.43
2022-11-07T22:04:11.806Z,1.93
2022-11-07T22:06:59.644Z,1.90
2022-11-07T22:09:46.605Z,1.97
2022-11-07T22:12:33.571Z,2.33
2022-11-07T22:15:20.557Z,2.00
2022-11-07T22:18:08.316Z,1.80
2022-11-07T22:20:58.842Z,2.10
2022-11-07T22:23:45.877Z,2.20
2022-11-07T22:26:32.915Z,2.00
2022-11-07T22:29:20.501Z,2.20
2022-11-07T22:32:07.733Z,2.00
2022-11-07T22:34:54.749Z,1.60
2022-11-07T22:37:41.740Z,2.20
2022-11-07T22:40:28.749Z,2.40
2022-11-07T22:43:16.129Z,1.90
2022-11-07T22:46:13.758Z,1.67
2022-11-07T22:49:00.800Z,1.67
2022-11-07T22:51:47.783Z,1.80
2022-11-07T22:54:34.749Z,1.70
2022-11-07T22:57:21.791Z,1.80
2022-11-07T23:00:20.911Z,2.60
2022-11-07T23:03:08.913Z,1.60
2022-11-07T23:05:56.010Z,2.20
2022-11-07T23:08:43.848Z,1.73
2022-11-07T23:11:51.065Z,2.13
2022-11-07T23:14:38.123Z,2.20
2022-11-07T23:17:25.119Z,2.00
2022-11-07T23:20:32.361Z,2.33
2022-11-07T23:23:19.339Z,2.27
2022-11-07T23:26:09.453Z,2.10
2022-11-07T23:28:56.684Z,3.43
2022-11-07T23:31:45.865Z,2.57
2022-11-07T23:34:32.845Z,3.00
2022-11-07T23:37:20.112Z,2.50
2022-11-07T23:40:07.553Z,3.03
2022-11-07T23:42:54.555Z,4.27
2022-11-07T23:45:59.825Z,2.03
2022-11-07T23:49:09.438Z,2.10
2022-11-07T23:51:58.964Z,1.87
2022-11-07T23:55:04.732Z,2.30
2022-11-07T23:58:10.359Z,2.20
